Terminal Aerodrome Forecast
Issued by NWS Charleston, WV

Current Version | Previous Version | Graphics & Text | Print | Product List | Glossary On
Versions: 1 2 3 4 5 6 7 8 9 10 11 12 13 14 15 16 17 18 19 20 21 22
000
FTUS41 KRLX 250910 AAA
TAFPKB
TAF AMD
KPKB 250910Z 2509/2606 19003KT P6SM SCT045 BKN070
      TEMPO 2509/2512 SHRA BKN045
     FM251500 22005KT P6SM SCT070
     FM251800 21009KT P6SM SCT050
     FM260000 21002KT P6SM SCT070=

USA.gov is the U.S. government's official web portal to all federal, state and local government web resources and services.